sensor_id;sensor_type;location;lat;lon;timestamp;P1;durP1;ratioP1;P2;durP2;ratioP2
1358;SDS011;673;48.098;14.422;2022-12-29T00:01:33;5.57;;;5.10;;
1358;SDS011;673;48.098;14.422;2022-12-29T00:04:01;4.60;;;4.13;;
1358;SDS011;673;48.098;14.422;2022-12-29T00:06:30;5.30;;;3.77;;
1358;SDS011;673;48.098;14.422;2022-12-29T00:08:57;2.73;;;2.50;;
1358;SDS011;673;48.098;14.422;2022-12-29T00:11:24;2.40;;;2.20;;
1358;SDS011;673;48.098;14.422;2022-12-29T00:13:53;2.03;;;1.53;;
1358;SDS011;673;48.098;14.422;2022-12-29T00:16:40;2.30;;;1.90;;
1358;SDS011;673;48.098;14.422;2022-12-29T00:19:08;2.43;;;2.07;;
1358;SDS011;673;48.098;14.422;2022-12-29T00:21:57;1.83;;;1.23;;
1358;SDS011;673;48.098;14.422;2022-12-29T00:24:42;2.77;;;1.20;;
1358;SDS011;673;48.098;14.422;2022-12-29T00:27:27;2.90;;;1.83;;
1358;SDS011;673;48.098;14.422;2022-12-29T00:30:13;2.60;;;1.80;;
1358;SDS011;673;48.098;14.422;2022-12-29T00:32:59;3.10;;;2.43;;
1358;SDS011;673;48.098;14.422;2022-12-29T00:35:44;2.05;;;1.65;;
1358;SDS011;673;48.098;14.422;2022-12-29T00:38:18;7.60;;;2.93;;
1358;SDS011;673;48.098;14.422;2022-12-29T00:41:04;2.70;;;1.67;;
1358;SDS011;673;48.098;14.422;2022-12-29T00:43:48;4.73;;;2.00;;
1358;SDS011;673;48.098;14.422;2022-12-29T00:46:35;1.97;;;1.77;;
1358;SDS011;673;48.098;14.422;2022-12-29T00:49:03;2.70;;;1.88;;
1358;SDS011;673;48.098;14.422;2022-12-29T00:51:49;2.60;;;2.20;;
1358;SDS011;673;48.098;14.422;2022-12-29T00:54:18;1.60;;;1.50;;
1358;SDS011;673;48.098;14.422;2022-12-29T00:56:45;4.00;;;1.75;;
1358;SDS011;673;48.098;14.422;2022-12-29T00:59:13;3.40;;;1.87;;
1358;SDS011;673;48.098;14.422;2022-12-29T01:01:41;1.90;;;1.80;;
1358;SDS011;673;48.098;14.422;2022-12-29T01:04:08;2.50;;;2.27;;
1358;SDS011;673;48.098;14.422;2022-12-29T01:06:36;2.72;;;2.53;;
1358;SDS011;673;48.098;14.422;2022-12-29T01:09:04;2.90;;;2.30;;
1358;SDS011;673;48.098;14.422;2022-12-29T01:11:50;2.05;;;1.85;;
1358;SDS011;673;48.098;14.422;2022-12-29T01:14:18;2.85;;;1.88;;
1358;SDS011;673;48.098;14.422;2022-12-29T01:16:45;2.05;;;1.25;;
1358;SDS011;673;48.098;14.422;2022-12-29T01:19:13;2.20;;;1.40;;
1358;SDS011;673;48.098;14.422;2022-12-29T01:21:41;3.22;;;2.10;;
1358;SDS011;673;48.098;14.422;2022-12-29T01:24:08;1.85;;;1.60;;
1358;SDS011;673;48.098;14.422;2022-12-29T01:26:35;1.83;;;1.17;;
1358;SDS011;673;48.098;14.422;2022-12-29T01:29:04;2.33;;;1.13;;
1358;SDS011;673;48.098;14.422;2022-12-29T01:31:31;2.30;;;1.00;;
1358;SDS011;673;48.098;14.422;2022-12-29T01:33:58;1.63;;;0.82;;
1358;SDS011;673;48.098;14.422;2022-12-29T01:36:25;1.35;;;1.00;;
1358;SDS011;673;48.098;14.422;2022-12-29T01:38:52;1.05;;;0.60;;
1358;SDS011;673;48.098;14.422;2022-12-29T01:41:19;1.03;;;0.60;;
1358;SDS011;673;48.098;14.422;2022-12-29T01:43:47;0.80;;;0.80;;
1358;SDS011;673;48.098;14.422;2022-12-29T01:46:18;0.90;;;0.70;;
1358;SDS011;673;48.098;14.422;2022-12-29T01:48:51;0.70;;;0.65;;
1358;SDS011;673;48.098;14.422;2022-12-29T01:51:21;2.00;;;0.87;;
1358;SDS011;673;48.098;14.422;2022-12-29T01:53:50;0.90;;;0.60;;
1358;SDS011;673;48.098;14.422;2022-12-29T01:56:19;0.90;;;0.80;;
1358;SDS011;673;48.098;14.422;2022-12-29T01:58:48;0.70;;;0.67;;
1358;SDS011;673;48.098;14.422;2022-12-29T02:01:20;0.93;;;0.83;;
1358;SDS011;673;48.098;14.422;2022-12-29T02:03:48;2.03;;;1.07;;
1358;SDS011;673;48.098;14.422;2022-12-29T02:06:17;1.15;;;1.00;;
1358;SDS011;673;48.098;14.422;2022-12-29T02:08:49;2.10;;;1.17;;
1358;SDS011;673;48.098;14.422;2022-12-29T02:11:18;2.03;;;1.40;;
1358;SDS011;673;48.098;14.422;2022-12-29T02:13:47;1.97;;;1.13;;
1358;SDS011;673;48.098;14.422;2022-12-29T02:16:18;1.73;;;1.20;;
1358;SDS011;673;48.098;14.422;2022-12-29T02:19:00;1.40;;;1.07;;
1358;SDS011;673;48.098;14.422;2022-12-29T02:21:55;1.10;;;0.90;;
1358;SDS011;673;48.098;14.422;2022-12-29T02:24:40;2.73;;;1.10;;
1358;SDS011;673;48.098;14.422;2022-12-29T02:30:40;1.80;;;1.20;;
1358;SDS011;673;48.098;14.422;2022-12-29T02:33:20;1.20;;;0.80;;
1358;SDS011;673;48.098;14.422;2022-12-29T02:35:55;5.03;;;1.70;;
1358;SDS011;673;48.098;14.422;2022-12-29T02:38:30;5.22;;;1.08;;
1358;SDS011;673;48.098;14.422;2022-12-29T02:41:05;13.70;;;0.90;;
1358;SDS011;673;48.098;14.422;2022-12-29T02:43:36;3.20;;;1.17;;
1358;SDS011;673;48.098;14.422;2022-12-29T02:46:10;1.43;;;0.77;;
1358;SDS011;673;48.098;14.422;2022-12-29T02:48:45;1.70;;;0.87;;
1358;SDS011;673;48.098;14.422;2022-12-29T02:51:18;0.60;;;0.60;;
1358;SDS011;673;48.098;14.422;2022-12-29T02:53:50;1.17;;;0.70;;
1358;SDS011;673;48.098;14.422;2022-12-29T02:56:35;1.67;;;1.20;;
1358;SDS011;673;48.098;14.422;2022-12-29T02:59:02;1.03;;;0.93;;
1358;SDS011;673;48.098;14.422;2022-12-29T03:01:33;1.30;;;0.80;;
1358;SDS011;673;48.098;14.422;2022-12-29T03:04:29;2.40;;;1.03;;
1358;SDS011;673;48.098;14.422;2022-12-29T03:07:06;1.87;;;0.80;;
1358;SDS011;673;48.098;14.422;2022-12-29T03:09:40;1.23;;;1.00;;
1358;SDS011;673;48.098;14.422;2022-12-29T03:12:18;1.30;;;0.77;;
1358;SDS011;673;48.098;14.422;2022-12-29T03:15:10;0.73;;;0.73;;
1358;SDS011;673;48.098;14.422;2022-12-29T03:18:06;1.70;;;1.00;;
1358;SDS011;673;48.098;14.422;2022-12-29T03:20:41;0.77;;;0.77;;
1358;SDS011;673;48.098;14.422;2022-12-29T03:23:14;1.67;;;1.03;;
1358;SDS011;673;48.098;14.422;2022-12-29T03:25:43;2.10;;;1.20;;
1358;SDS011;673;48.098;14.422;2022-12-29T03:28:15;1.47;;;0.97;;
1358;SDS011;673;48.098;14.422;2022-12-29T03:30:46;2.03;;;1.10;;
1358;SDS011;673;48.098;14.422;2022-12-29T03:33:15;1.10;;;0.80;;
1358;SDS011;673;48.098;14.422;2022-12-29T03:35:45;1.20;;;1.00;;
1358;SDS011;673;48.098;14.422;2022-12-29T03:38:16;1.37;;;1.23;;
1358;SDS011;673;48.098;14.422;2022-12-29T03:40:48;1.93;;;1.00;;
1358;SDS011;673;48.098;14.422;2022-12-29T03:43:19;1.53;;;1.07;;
1358;SDS011;673;48.098;14.422;2022-12-29T03:45:47;1.00;;;0.70;;
1358;SDS011;673;48.098;14.422;2022-12-29T03:48:15;1.58;;;0.90;;
1358;SDS011;673;48.098;14.422;2022-12-29T03:50:42;1.13;;;0.90;;
1358;SDS011;673;48.098;14.422;2022-12-29T03:53:09;2.27;;;1.57;;
1358;SDS011;673;48.098;14.422;2022-12-29T03:55:36;2.03;;;1.20;;
1358;SDS011;673;48.098;14.422;2022-12-29T03:58:03;4.88;;;1.20;;
1358;SDS011;673;48.098;14.422;2022-12-29T04:00:29;3.03;;;1.25;;
1358;SDS011;673;48.098;14.422;2022-12-29T04:02:56;1.77;;;1.00;;
1358;SDS011;673;48.098;14.422;2022-12-29T04:05:25;1.55;;;0.85;;
1358;SDS011;673;48.098;14.422;2022-12-29T04:07:52;2.03;;;1.50;;
1358;SDS011;673;48.098;14.422;2022-12-29T04:10:19;3.33;;;1.95;;
1358;SDS011;673;48.098;14.422;2022-12-29T04:12:46;3.13;;;2.67;;
1358;SDS011;673;48.098;14.422;2022-12-29T04:15:13;1.67;;;1.50;;
1358;SDS011;673;48.098;14.422;2022-12-29T04:17:40;4.65;;;3.97;;
1358;SDS011;673;48.098;14.422;2022-12-29T04:20:07;4.43;;;4.03;;
1358;SDS011;673;48.098;14.422;2022-12-29T04:22:58;3.58;;;2.25;;
1358;SDS011;673;48.098;14.422;2022-12-29T04:25:26;2.50;;;2.30;;
1358;SDS011;673;48.098;14.422;2022-12-29T04:27:53;3.50;;;2.37;;
1358;SDS011;673;48.098;14.422;2022-12-29T04:30:20;2.00;;;1.70;;
1358;SDS011;673;48.098;14.422;2022-12-29T04:32:46;6.77;;;2.80;;
1358;SDS011;673;48.098;14.422;2022-12-29T04:35:14;5.05;;;3.47;;
1358;SDS011;673;48.098;14.422;2022-12-29T04:37:41;6.72;;;3.88;;
1358;SDS011;673;48.098;14.422;2022-12-29T04:40:10;2.43;;;2.17;;
1358;SDS011;673;48.098;14.422;2022-12-29T04:42:37;3.25;;;2.25;;
1358;SDS011;673;48.098;14.422;2022-12-29T04:45:05;4.05;;;2.92;;
1358;SDS011;673;48.098;14.422;2022-12-29T04:47:33;3.83;;;3.20;;
1358;SDS011;673;48.098;14.422;2022-12-29T04:50:00;5.65;;;3.10;;
1358;SDS011;673;48.098;14.422;2022-12-29T04:52:27;7.13;;;4.88;;
1358;SDS011;673;48.098;14.422;2022-12-29T04:54:53;5.70;;;4.65;;
1358;SDS011;673;48.098;14.422;2022-12-29T04:57:22;4.60;;;4.20;;
1358;SDS011;673;48.098;14.422;2022-12-29T04:59:49;5.45;;;3.55;;
1358;SDS011;673;48.098;14.422;2022-12-29T05:02:16;5.68;;;5.15;;
1358;SDS011;673;48.098;14.422;2022-12-29T05:04:43;5.20;;;4.22;;
1358;SDS011;673;48.098;14.422;2022-12-29T05:07:10;5.30;;;3.80;;
1358;SDS011;673;48.098;14.422;2022-12-29T05:09:37;3.58;;;3.00;;
1358;SDS011;673;48.098;14.422;2022-12-29T05:12:05;6.80;;;4.68;;
1358;SDS011;673;48.098;14.422;2022-12-29T05:14:33;7.30;;;4.93;;
1358;SDS011;673;48.098;14.422;2022-12-29T05:17:00;6.65;;;4.30;;
1358;SDS011;673;48.098;14.422;2022-12-29T05:19:27;3.88;;;3.63;;
1358;SDS011;673;48.098;14.422;2022-12-29T05:21:54;3.33;;;3.03;;
1358;SDS011;673;48.098;14.422;2022-12-29T05:24:21;7.18;;;4.68;;
1358;SDS011;673;48.098;14.422;2022-12-29T05:26:48;5.70;;;4.40;;
1358;SDS011;673;48.098;14.422;2022-12-29T05:29:16;5.43;;;3.83;;
1358;SDS011;673;48.098;14.422;2022-12-29T05:31:44;6.20;;;3.75;;
1358;SDS011;673;48.098;14.422;2022-12-29T05:34:11;7.18;;;3.63;;
1358;SDS011;673;48.098;14.422;2022-12-29T05:36:39;3.30;;;3.00;;
1358;SDS011;673;48.098;14.422;2022-12-29T05:39:06;4.53;;;3.45;;
1358;SDS011;673;48.098;14.422;2022-12-29T05:41:33;4.40;;;3.28;;
1358;SDS011;673;48.098;14.422;2022-12-29T05:44:00;4.30;;;2.80;;
1358;SDS011;673;48.098;14.422;2022-12-29T05:46:27;3.00;;;2.20;;
1358;SDS011;673;48.098;14.422;2022-12-29T05:48:55;3.08;;;2.88;;
1358;SDS011;673;48.098;14.422;2022-12-29T05:51:22;4.13;;;3.70;;
1358;SDS011;673;48.098;14.422;2022-12-29T05:53:49;9.15;;;3.70;;
1358;SDS011;673;48.098;14.422;2022-12-29T05:56:16;3.85;;;3.25;;
1358;SDS011;673;48.098;14.422;2022-12-29T05:58:43;4.47;;;4.07;;
1358;SDS011;673;48.098;14.422;2022-12-29T06:01:10;3.92;;;3.08;;
1358;SDS011;673;48.098;14.422;2022-12-29T06:03:37;4.05;;;3.53;;
1358;SDS011;673;48.098;14.422;2022-12-29T06:06:06;4.25;;;3.20;;
1358;SDS011;673;48.098;14.422;2022-12-29T06:08:33;4.80;;;3.58;;
1358;SDS011;673;48.098;14.422;2022-12-29T06:11:00;3.58;;;2.80;;
1358;SDS011;673;48.098;14.422;2022-12-29T06:13:27;4.53;;;3.92;;
1358;SDS011;673;48.098;14.422;2022-12-29T06:15:53;3.88;;;3.47;;
1358;SDS011;673;48.098;14.422;2022-12-29T06:18:20;3.83;;;3.50;;
1358;SDS011;673;48.098;14.422;2022-12-29T06:20:47;5.53;;;3.30;;
1358;SDS011;673;48.098;14.422;2022-12-29T06:23:16;5.95;;;3.60;;
1358;SDS011;673;48.098;14.422;2022-12-29T06:25:43;6.30;;;3.03;;
1358;SDS011;673;48.098;14.422;2022-12-29T06:28:10;4.43;;;4.03;;
1358;SDS011;673;48.098;14.422;2022-12-29T06:30:37;4.32;;;2.75;;
1358;SDS011;673;48.098;14.422;2022-12-29T06:33:04;8.38;;;4.18;;
1358;SDS011;673;48.098;14.422;2022-12-29T06:35:33;4.38;;;3.83;;
1358;SDS011;673;48.098;14.422;2022-12-29T06:38:00;4.60;;;4.20;;
1358;SDS011;673;48.098;14.422;2022-12-29T06:40:28;9.32;;;5.28;;
1358;SDS011;673;48.098;14.422;2022-12-29T06:42:55;4.60;;;4.00;;
1358;SDS011;673;48.098;14.422;2022-12-29T06:45:22;4.65;;;4.25;;
1358;SDS011;673;48.098;14.422;2022-12-29T06:47:49;6.07;;;5.00;;
1358;SDS011;673;48.098;14.422;2022-12-29T06:50:16;13.05;;;9.68;;
1358;SDS011;673;48.098;14.422;2022-12-29T06:52:43;20.30;;;11.80;;
1358;SDS011;673;48.098;14.422;2022-12-29T06:55:10;72.53;;;36.07;;
1358;SDS011;673;48.098;14.422;2022-12-29T06:57:38;12.93;;;8.48;;
1358;SDS011;673;48.098;14.422;2022-12-29T07:00:06;8.35;;;5.40;;
1358;SDS011;673;48.098;14.422;2022-12-29T07:02:33;9.00;;;5.90;;
1358;SDS011;673;48.098;14.422;2022-12-29T07:05:00;7.90;;;5.65;;
1358;SDS011;673;48.098;14.422;2022-12-29T07:07:27;8.40;;;5.90;;
1358;SDS011;673;48.098;14.422;2022-12-29T07:09:54;8.98;;;6.80;;
1358;SDS011;673;48.098;14.422;2022-12-29T07:12:21;6.57;;;5.27;;
1358;SDS011;673;48.098;14.422;2022-12-29T07:14:50;8.02;;;6.07;;
1358;SDS011;673;48.098;14.422;2022-12-29T07:17:16;4.50;;;4.10;;
1358;SDS011;673;48.098;14.422;2022-12-29T07:19:43;4.90;;;4.53;;
1358;SDS011;673;48.098;14.422;2022-12-29T07:22:10;5.70;;;5.07;;
1358;SDS011;673;48.098;14.422;2022-12-29T07:24:37;4.82;;;4.30;;
1358;SDS011;673;48.098;14.422;2022-12-29T07:27:05;12.88;;;6.75;;
1358;SDS011;673;48.098;14.422;2022-12-29T07:29:32;8.05;;;7.35;;
1358;SDS011;673;48.098;14.422;2022-12-29T07:32:00;9.82;;;8.93;;
1358;SDS011;673;48.098;14.422;2022-12-29T07:34:27;13.80;;;11.52;;
1358;SDS011;673;48.098;14.422;2022-12-29T07:36:54;16.98;;;12.63;;
1358;SDS011;673;48.098;14.422;2022-12-29T07:39:21;10.25;;;7.07;;
1358;SDS011;673;48.098;14.422;2022-12-29T07:41:48;7.68;;;5.90;;
1358;SDS011;673;48.098;14.422;2022-12-29T07:44:15;7.20;;;5.80;;
1358;SDS011;673;48.098;14.422;2022-12-29T07:46:42;6.50;;;5.90;;
1358;SDS011;673;48.098;14.422;2022-12-29T07:49:10;7.68;;;6.28;;
1358;SDS011;673;48.098;14.422;2022-12-29T07:51:37;5.63;;;5.00;;
1358;SDS011;673;48.098;14.422;2022-12-29T07:54:04;7.75;;;6.90;;
1358;SDS011;673;48.098;14.422;2022-12-29T07:56:31;6.22;;;5.63;;
1358;SDS011;673;48.098;14.422;2022-12-29T07:58:58;9.20;;;8.13;;
1358;SDS011;673;48.098;14.422;2022-12-29T08:01:25;7.50;;;6.53;;
1358;SDS011;673;48.098;14.422;2022-12-29T08:03:52;7.20;;;5.93;;
1358;SDS011;673;48.098;14.422;2022-12-29T08:06:20;7.72;;;7.03;;
1358;SDS011;673;48.098;14.422;2022-12-29T08:08:47;8.23;;;7.35;;
1358;SDS011;673;48.098;14.422;2022-12-29T08:11:14;14.80;;;7.80;;
1358;SDS011;673;48.098;14.422;2022-12-29T08:13:41;9.45;;;7.07;;
1358;SDS011;673;48.098;14.422;2022-12-29T08:16:08;7.03;;;6.30;;
1358;SDS011;673;48.098;14.422;2022-12-29T08:18:35;7.57;;;6.90;;
1358;SDS011;673;48.098;14.422;2022-12-29T08:21:02;11.80;;;10.80;;
1358;SDS011;673;48.098;14.422;2022-12-29T08:23:31;11.33;;;9.63;;
1358;SDS011;673;48.098;14.422;2022-12-29T08:25:58;6.60;;;6.00;;
1358;SDS011;673;48.098;14.422;2022-12-29T08:28:26;7.90;;;7.13;;
1358;SDS011;673;48.098;14.422;2022-12-29T08:30:53;6.67;;;6.00;;
1358;SDS011;673;48.098;14.422;2022-12-29T08:33:22;7.20;;;6.50;;
1358;SDS011;673;48.098;14.422;2022-12-29T08:35:49;16.73;;;14.43;;
1358;SDS011;673;48.098;14.422;2022-12-29T08:38:16;12.23;;;10.43;;
1358;SDS011;673;48.098;14.422;2022-12-29T08:40:45;9.27;;;8.33;;
1358;SDS011;673;48.098;14.422;2022-12-29T08:43:12;9.10;;;8.20;;
1358;SDS011;673;48.098;14.422;2022-12-29T08:45:39;10.33;;;8.30;;
1358;SDS011;673;48.098;14.422;2022-12-29T08:48:06;7.70;;;6.90;;
1358;SDS011;673;48.098;14.422;2022-12-29T08:50:33;8.10;;;7.30;;
1358;SDS011;673;48.098;14.422;2022-12-29T08:53:00;10.70;;;7.60;;
1358;SDS011;673;48.098;14.422;2022-12-29T08:55:27;10.27;;;7.37;;
1358;SDS011;673;48.098;14.422;2022-12-29T08:57:56;6.90;;;6.17;;
1358;SDS011;673;48.098;14.422;2022-12-29T09:00:23;7.30;;;6.20;;
1358;SDS011;673;48.098;14.422;2022-12-29T09:02:50;9.77;;;6.77;;
1358;SDS011;673;48.098;14.422;2022-12-29T09:05:17;9.80;;;8.90;;
1358;SDS011;673;48.098;14.422;2022-12-29T09:07:44;6.30;;;5.57;;
1358;SDS011;673;48.098;14.422;2022-12-29T09:10:11;6.73;;;6.00;;
1358;SDS011;673;48.098;14.422;2022-12-29T09:12:38;6.87;;;6.17;;
1358;SDS011;673;48.098;14.422;2022-12-29T09:15:07;9.13;;;6.43;;
1358;SDS011;673;48.098;14.422;2022-12-29T09:17:35;11.40;;;6.70;;
1358;SDS011;673;48.098;14.422;2022-12-29T09:20:09;22.80;;;12.40;;
1358;SDS011;673;48.098;14.422;2022-12-29T09:22:37;7.80;;;5.80;;
1358;SDS011;673;48.098;14.422;2022-12-29T09:25:04;7.57;;;6.10;;
1358;SDS011;673;48.098;14.422;2022-12-29T09:27:32;7.40;;;6.40;;
1358;SDS011;673;48.098;14.422;2022-12-29T09:29:59;13.33;;;8.53;;
1358;SDS011;673;48.098;14.422;2022-12-29T09:32:27;8.10;;;6.60;;
1358;SDS011;673;48.098;14.422;2022-12-29T09:34:54;6.40;;;5.10;;
1358;SDS011;673;48.098;14.422;2022-12-29T09:37:21;3.47;;;3.17;;
1358;SDS011;673;48.098;14.422;2022-12-29T09:39:48;3.87;;;3.60;;
1358;SDS011;673;48.098;14.422;2022-12-29T09:42:17;4.53;;;4.10;;
1358;SDS011;673;48.098;14.422;2022-12-29T09:44:49;3.87;;;3.17;;
1358;SDS011;673;48.098;14.422;2022-12-29T09:47:22;3.50;;;2.90;;
1358;SDS011;673;48.098;14.422;2022-12-29T09:49:53;3.10;;;2.80;;
1358;SDS011;673;48.098;14.422;2022-12-29T09:52:23;21.67;;;9.63;;
1358;SDS011;673;48.098;14.422;2022-12-29T09:54:55;10.50;;;7.67;;
1358;SDS011;673;48.098;14.422;2022-12-29T09:57:24;4.07;;;3.67;;
1358;SDS011;673;48.098;14.422;2022-12-29T09:59:55;21.90;;;12.20;;
1358;SDS011;673;48.098;14.422;2022-12-29T10:02:32;20.27;;;12.43;;
1358;SDS011;673;48.098;14.422;2022-12-29T10:05:20;10.23;;;6.57;;
1358;SDS011;673;48.098;14.422;2022-12-29T10:08:00;7.30;;;4.87;;
1358;SDS011;673;48.098;14.422;2022-12-29T10:10:43;12.90;;;7.73;;
1358;SDS011;673;48.098;14.422;2022-12-29T10:13:20;6.47;;;5.87;;
1358;SDS011;673;48.098;14.422;2022-12-29T10:16:00;19.67;;;11.17;;
1358;SDS011;673;48.098;14.422;2022-12-29T10:21:28;8.90;;;5.70;;
1358;SDS011;673;48.098;14.422;2022-12-29T10:24:06;8.63;;;7.73;;
1358;SDS011;673;48.098;14.422;2022-12-29T10:26:38;6.13;;;5.53;;
1358;SDS011;673;48.098;14.422;2022-12-29T10:29:10;7.07;;;6.37;;
1358;SDS011;673;48.098;14.422;2022-12-29T10:31:42;8.53;;;5.93;;
1358;SDS011;673;48.098;14.422;2022-12-29T10:34:14;7.97;;;5.43;;
1358;SDS011;673;48.098;14.422;2022-12-29T10:36:46;5.17;;;4.67;;
1358;SDS011;673;48.098;14.422;2022-12-29T10:39:16;6.10;;;5.60;;
1358;SDS011;673;48.098;14.422;2022-12-29T10:41:48;5.50;;;5.10;;
1358;SDS011;673;48.098;14.422;2022-12-29T10:44:17;5.33;;;4.80;;
1358;SDS011;673;48.098;14.422;2022-12-29T10:46:47;6.70;;;6.07;;
1358;SDS011;673;48.098;14.422;2022-12-29T10:49:20;6.70;;;5.27;;
1358;SDS011;673;48.098;14.422;2022-12-29T10:51:49;6.93;;;5.90;;
1358;SDS011;673;48.098;14.422;2022-12-29T10:54:18;5.67;;;5.07;;
1358;SDS011;673;48.098;14.422;2022-12-29T10:56:50;5.47;;;4.93;;
1358;SDS011;673;48.098;14.422;2022-12-29T10:59:20;4.77;;;4.40;;
1358;SDS011;673;48.098;14.422;2022-12-29T11:01:52;11.30;;;6.87;;
1358;SDS011;673;48.098;14.422;2022-12-29T11:04:33;7.43;;;5.00;;
1358;SDS011;673;48.098;14.422;2022-12-29T11:07:11;4.87;;;4.47;;
1358;SDS011;673;48.098;14.422;2022-12-29T11:09:38;4.70;;;4.30;;
1358;SDS011;673;48.098;14.422;2022-12-29T11:12:20;4.50;;;3.77;;
1358;SDS011;673;48.098;14.422;2022-12-29T11:15:00;3.60;;;3.30;;
1358;SDS011;673;48.098;14.422;2022-12-29T11:17:42;3.80;;;3.50;;
1358;SDS011;673;48.098;14.422;2022-12-29T11:23:05;6.13;;;3.10;;
1358;SDS011;673;48.098;14.422;2022-12-29T11:26:07;7.40;;;5.20;;
1358;SDS011;673;48.098;14.422;2022-12-29T11:28:40;3.70;;;3.40;;
1358;SDS011;673;48.098;14.422;2022-12-29T11:31:08;5.10;;;4.15;;
1358;SDS011;673;48.098;14.422;2022-12-29T11:33:37;4.40;;;4.00;;
1358;SDS011;673;48.098;14.422;2022-12-29T11:36:05;4.55;;;4.10;;
1358;SDS011;673;48.098;14.422;2022-12-29T11:38:38;5.40;;;4.73;;
1358;SDS011;673;48.098;14.422;2022-12-29T11:41:09;4.17;;;3.80;;
1358;SDS011;673;48.098;14.422;2022-12-29T11:43:39;7.20;;;3.43;;
1358;SDS011;673;48.098;14.422;2022-12-29T11:46:12;3.77;;;3.40;;
1358;SDS011;673;48.098;14.422;2022-12-29T11:48:43;4.50;;;3.97;;
1358;SDS011;673;48.098;14.422;2022-12-29T11:51:12;4.10;;;3.77;;
1358;SDS011;673;48.098;14.422;2022-12-29T11:53:49;4.17;;;3.77;;
1358;SDS011;673;48.098;14.422;2022-12-29T11:56:19;4.10;;;3.70;;
1358;SDS011;673;48.098;14.422;2022-12-29T11:58:48;3.20;;;2.90;;
1358;SDS011;673;48.098;14.422;2022-12-29T12:01:19;3.23;;;2.93;;
1358;SDS011;673;48.098;14.422;2022-12-29T12:03:52;3.40;;;3.10;;
1358;SDS011;673;48.098;14.422;2022-12-29T12:06:26;2.90;;;2.37;;
1358;SDS011;673;48.098;14.422;2022-12-29T12:08:57;3.93;;;2.87;;
1358;SDS011;673;48.098;14.422;2022-12-29T12:11:29;3.87;;;2.60;;
1358;SDS011;673;48.098;14.422;2022-12-29T12:14:04;4.83;;;4.27;;
1358;SDS011;673;48.098;14.422;2022-12-29T12:16:38;6.90;;;5.00;;
1358;SDS011;673;48.098;14.422;2022-12-29T12:19:10;5.33;;;4.40;;
1358;SDS011;673;48.098;14.422;2022-12-29T12:21:47;3.87;;;3.40;;
1358;SDS011;673;48.098;14.422;2022-12-29T12:24:26;5.17;;;3.90;;
1358;SDS011;673;48.098;14.422;2022-12-29T12:27:02;3.67;;;3.37;;
1358;SDS011;673;48.098;14.422;2022-12-29T12:29:40;4.37;;;3.43;;
1358;SDS011;673;48.098;14.422;2022-12-29T12:32:14;3.90;;;3.60;;
1358;SDS011;673;48.098;14.422;2022-12-29T12:34:46;5.47;;;3.90;;
1358;SDS011;673;48.098;14.422;2022-12-29T12:37:18;7.17;;;5.27;;
1358;SDS011;673;48.098;14.422;2022-12-29T12:43:20;2.90;;;2.05;;
1358;SDS011;673;48.098;14.422;2022-12-29T12:46:06;2.53;;;2.10;;
1358;SDS011;673;48.098;14.422;2022-12-29T12:48:50;3.43;;;2.10;;
1358;SDS011;673;48.098;14.422;2022-12-29T12:51:38;5.23;;;3.70;;
1358;SDS011;673;48.098;14.422;2022-12-29T12:54:18;3.53;;;3.23;;
1358;SDS011;673;48.098;14.422;2022-12-29T12:56:59;3.47;;;2.60;;
1358;SDS011;673;48.098;14.422;2022-12-29T12:59:37;2.90;;;2.60;;
1358;SDS011;673;48.098;14.422;2022-12-29T13:02:15;4.60;;;3.60;;
1358;SDS011;673;48.098;14.422;2022-12-29T13:05:02;3.43;;;2.13;;
1358;SDS011;673;48.098;14.422;2022-12-29T13:07:48;2.17;;;1.10;;
1358;SDS011;673;48.098;14.422;2022-12-29T13:10:27;3.23;;;2.30;;
1358;SDS011;673;48.098;14.422;2022-12-29T13:13:09;4.47;;;3.23;;
1358;SDS011;673;48.098;14.422;2022-12-29T13:15:53;9.00;;;4.10;;
1358;SDS011;673;48.098;14.422;2022-12-29T13:18:30;3.78;;;2.40;;
1358;SDS011;673;48.098;14.422;2022-12-29T13:21:05;3.47;;;2.50;;
1358;SDS011;673;48.098;14.422;2022-12-29T13:23:39;2.47;;;2.03;;
1358;SDS011;673;48.098;14.422;2022-12-29T13:26:14;4.80;;;3.03;;
1358;SDS011;673;48.098;14.422;2022-12-29T13:28:49;4.97;;;3.27;;
1358;SDS011;673;48.098;14.422;2022-12-29T13:31:26;5.70;;;3.40;;
1358;SDS011;673;48.098;14.422;2022-12-29T13:34:00;4.13;;;2.90;;
1358;SDS011;673;48.098;14.422;2022-12-29T13:36:36;8.67;;;3.47;;
1358;SDS011;673;48.098;14.422;2022-12-29T13:39:09;5.03;;;3.23;;
1358;SDS011;673;48.098;14.422;2022-12-29T13:41:43;3.17;;;2.87;;
1358;SDS011;673;48.098;14.422;2022-12-29T13:44:17;2.77;;;2.53;;
1358;SDS011;673;48.098;14.422;2022-12-29T13:46:51;3.38;;;2.20;;
1358;SDS011;673;48.098;14.422;2022-12-29T13:49:21;3.40;;;3.10;;
1358;SDS011;673;48.098;14.422;2022-12-29T13:51:50;4.00;;;2.90;;
1358;SDS011;673;48.098;14.422;2022-12-29T13:54:23;3.27;;;2.90;;
1358;SDS011;673;48.098;14.422;2022-12-29T13:57:00;3.50;;;2.83;;
1358;SDS011;673;48.098;14.422;2022-12-29T13:59:36;2.63;;;2.43;;
1358;SDS011;673;48.098;14.422;2022-12-29T14:02:21;5.30;;;3.73;;
1358;SDS011;673;48.098;14.422;2022-12-29T14:04:58;4.93;;;2.93;;
1358;SDS011;673;48.098;14.422;2022-12-29T14:07:27;4.43;;;4.03;;
1358;SDS011;673;48.098;14.422;2022-12-29T14:09:55;6.63;;;4.10;;
1358;SDS011;673;48.098;14.422;2022-12-29T14:12:34;5.77;;;4.03;;
1358;SDS011;673;48.098;14.422;2022-12-29T14:15:14;6.07;;;3.70;;
1358;SDS011;673;48.098;14.422;2022-12-29T14:18:02;3.60;;;3.33;;
1358;SDS011;673;48.098;14.422;2022-12-29T14:20:36;4.50;;;4.20;;
1358;SDS011;673;48.098;14.422;2022-12-29T14:23:15;7.47;;;5.30;;
1358;SDS011;673;48.098;14.422;2022-12-29T14:25:52;6.07;;;3.93;;
1358;SDS011;673;48.098;14.422;2022-12-29T14:28:27;5.17;;;4.60;;
1358;SDS011;673;48.098;14.422;2022-12-29T14:30:55;6.17;;;4.20;;
1358;SDS011;673;48.098;14.422;2022-12-29T14:33:25;6.37;;;4.70;;
1358;SDS011;673;48.098;14.422;2022-12-29T14:35:53;5.80;;;5.20;;
1358;SDS011;673;48.098;14.422;2022-12-29T14:38:22;10.60;;;6.70;;
1358;SDS011;673;48.098;14.422;2022-12-29T14:43:56;5.77;;;5.17;;
1358;SDS011;673;48.098;14.422;2022-12-29T14:46:25;5.93;;;3.90;;
1358;SDS011;673;48.098;14.422;2022-12-29T14:49:17;4.83;;;4.33;;
1358;SDS011;673;48.098;14.422;2022-12-29T14:51:46;72.13;;;41.20;;
1358;SDS011;673;48.098;14.422;2022-12-29T14:57:09;33.10;;;19.77;;
1358;SDS011;673;48.098;14.422;2022-12-29T14:59:42;20.30;;;14.60;;
1358;SDS011;673;48.098;14.422;2022-12-29T15:02:13;14.20;;;9.87;;
1358;SDS011;673;48.098;14.422;2022-12-29T15:04:46;13.90;;;7.87;;
1358;SDS011;673;48.098;14.422;2022-12-29T15:07:13;13.50;;;9.83;;
1358;SDS011;673;48.098;14.422;2022-12-29T15:09:44;11.47;;;8.80;;
1358;SDS011;673;48.098;14.422;2022-12-29T15:12:17;7.37;;;5.30;;
1358;SDS011;673;48.098;14.422;2022-12-29T15:14:49;7.33;;;6.63;;
1358;SDS011;673;48.098;14.422;2022-12-29T15:17:24;8.47;;;6.70;;
1358;SDS011;673;48.098;14.422;2022-12-29T15:19:55;6.53;;;5.10;;
1358;SDS011;673;48.098;14.422;2022-12-29T15:22:23;6.33;;;5.70;;
1358;SDS011;673;48.098;14.422;2022-12-29T15:24:52;6.90;;;5.90;;
1358;SDS011;673;48.098;14.422;2022-12-29T15:27:20;7.70;;;6.57;;
1358;SDS011;673;48.098;14.422;2022-12-29T15:29:54;10.47;;;7.50;;
1358;SDS011;673;48.098;14.422;2022-12-29T15:32:24;6.90;;;6.20;;
1358;SDS011;673;48.098;14.422;2022-12-29T15:34:53;10.87;;;8.37;;
1358;SDS011;673;48.098;14.422;2022-12-29T15:37:26;9.30;;;7.60;;
1358;SDS011;673;48.098;14.422;2022-12-29T15:39:55;9.07;;;6.33;;
1358;SDS011;673;48.098;14.422;2022-12-29T15:42:35;13.93;;;10.17;;
1358;SDS011;673;48.098;14.422;2022-12-29T15:45:14;9.97;;;8.90;;
1358;SDS011;673;48.098;14.422;2022-12-29T15:47:42;12.90;;;10.03;;
1358;SDS011;673;48.098;14.422;2022-12-29T15:50:16;10.17;;;6.30;;
1358;SDS011;673;48.098;14.422;2022-12-29T15:52:49;9.00;;;6.40;;
1358;SDS011;673;48.098;14.422;2022-12-29T15:55:18;8.35;;;7.55;;
1358;SDS011;673;48.098;14.422;2022-12-29T15:57:55;5.17;;;4.53;;